Time;durP1;ratioP1;P1;durP2;ratioP2;P2;SDS_P1;SDS_P2;PMS_P1;PMS_P2;Temp;Humidity;BMP_temperature;BMP_pressure;BME280_temperature;BME280_humidity;BME280_pressure;Samples;Min_cycle;Max_cycle;Signal;HPM_P1;HPM_P2
2022/11/16 00:01:15;;;;;;;;;2.00;0.75;;;;;11.03;79.06;99770.22;5078376;27;45382;-83
2022/11/16 00:03:40;;;;;;;;;5.00;1.00;;;;;11.03;78.56;99771.97;5078428;27;45330;-82
2022/11/16 00:06:07;;;;;;;;;3.00;0.00;;;;;11.02;78.93;99775.50;5060046;27;45304;-82
2022/11/16 00:08:35;;;;;;;;;0.75;0.50;;;;;10.99;78.64;99776.47;5059937;28;46441;-83
2022/11/16 00:11:10;;;;;;;;;1.00;0.00;;;;;10.99;78.95;99776.47;5078199;27;45865;-83
2022/11/16 00:13:36;;;;;;;;;1.50;0.00;;;;;10.97;78.91;99778.28;5060225;28;45285;-83
2022/11/16 00:16:03;;;;;;;;;1.75;0.00;;;;;10.95;79.09;99785.34;5076913;27;45323;-83
2022/11/16 00:18:28;;;;;;;;;1.00;1.00;;;;;10.92;79.55;99776.81;5078009;28;47296;-83
2022/11/16 00:20:54;;;;;;;;;1.50;0.00;;;;;10.88;79.40;99778.72;5077464;27;45388;-82
2022/11/16 00:23:19;;;;;;;;;1.75;1.00;;;;;10.86;79.28;99772.75;5060048;28;45475;-83
2022/11/16 00:25:45;;;;;;;;;1.75;1.00;;;;;10.85;79.57;99784.91;5077752;28;61609;-83
2022/11/16 00:28:10;;;;;;;;;4.00;1.00;;;;;10.82;79.38;99777.25;5077686;28;45342;-83
2022/11/16 00:30:35;;;;;;;;;2.75;0.75;;;;;10.81;79.80;99775.56;5077861;27;45312;-83
2022/11/16 00:33:05;;;;;;;;;2.00;1.00;;;;;10.81;79.68;99785.97;5078007;28;45315;-83
2022/11/16 00:35:31;;;;;;;;;1.25;0.00;;;;;10.78;79.43;99774.84;5059372;28;45366;-83
2022/11/16 00:37:56;;;;;;;;;2.00;0.00;;;;;10.76;79.21;99772.31;5077582;27;46288;-83
2022/11/16 00:40:22;;;;;;;;;0.25;0.25;;;;;10.76;79.71;99780.13;5077366;27;45326;-83
2022/11/16 00:42:48;;;;;;;;;1.00;1.00;;;;;10.76;79.79;99776.69;5059700;28;45369;-83
2022/11/16 00:45:13;;;;;;;;;2.00;1.00;;;;;10.74;79.75;99776.75;5077213;27;53229;-82
2022/11/16 00:47:38;;;;;;;;;2.25;1.00;;;;;10.73;79.43;99782.84;5059302;28;46252;-83
2022/11/16 00:50:04;;;;;;;;;2.50;1.00;;;;;10.74;79.65;99779.34;5076144;27;69557;-83
2022/11/16 00:52:29;;;;;;;;;1.00;1.00;;;;;10.74;79.51;99781.13;5059452;28;45395;-83
2022/11/16 00:54:55;;;;;;;;;1.50;0.25;;;;;10.75;80.20;99768.00;5077051;28;55932;-83
2022/11/16 00:57:21;;;;;;;;;1.50;1.00;;;;;10.76;79.61;99771.47;5077309;27;45343;-83
2022/11/16 00:59:46;;;;;;;;;0.00;0.00;;;;;10.73;79.30;99772.44;5058605;27;45528;-83
2022/11/16 01:02:12;;;;;;;;;1.00;1.00;;;;;10.71;79.97;99778.66;5058425;28;63340;-83
2022/11/16 01:04:37;;;;;;;;;2.00;1.00;;;;;10.68;79.61;99786.59;5076294;27;67042;-83
2022/11/16 01:07:02;;;;;;;;;1.00;1.00;;;;;10.68;79.75;99786.59;5076026;27;75535;-83
2022/11/16 01:09:28;;;;;;;;;2.00;0.00;;;;;10.70;80.01;99777.81;5076668;27;61463;-83
2022/11/16 01:12:08;;;;;;;;;1.00;1.00;;;;;10.75;79.97;99781.03;5059112;27;45376;-82
2022/11/16 01:14:38;;;;;;;;;3.50;1.25;;;;;10.79;79.66;99777.41;5077132;27;45473;-82
2022/11/16 01:17:04;;;;;;;;;0.75;0.00;;;;;10.81;79.63;99770.34;5076991;27;45585;-82
2022/11/16 01:19:29;;;;;;;;;2.50;1.00;;;;;10.83;79.57;99776.34;5058598;28;45437;-83
2022/11/16 01:21:55;;;;;;;;;0.00;0.00;;;;;10.87;79.57;99779.66;5077408;27;45484;-83
2022/11/16 01:24:20;;;;;;;;;0.75;0.75;;;;;10.88;79.25;99781.31;5077033;28;45568;-83
2022/11/16 01:26:45;;;;;;;;;2.25;0.00;;;;;10.88;79.73;99778.72;5076427;27;63503;-83
2022/11/16 01:29:11;;;;;;;;;1.00;0.00;;;;;10.83;79.52;99772.91;5041858;28;45371;-83
2022/11/16 01:31:36;;;;;;;;;1.25;0.00;;;;;10.80;79.82;99770.41;5076425;27;57516;-83
2022/11/16 01:34:01;;;;;;;;;0.00;0.00;;;;;10.79;80.35;99766.97;5058597;28;45308;-83
2022/11/16 01:36:27;;;;;;;;;2.00;0.00;;;;;10.78;79.92;99773.09;5076660;28;46125;-82
2022/11/16 01:38:52;;;;;;;;;0.00;0.00;;;;;10.78;80.27;99767.88;5076428;27;45325;-83
2022/11/16 01:41:22;;;;;;;;;0.75;0.00;;;;;10.74;79.59;99771.53;5076035;28;61917;-83
2022/11/16 01:43:55;;;;;;;;;1.50;0.00;;;;;10.73;79.83;99762.03;5058698;28;45277;-82
2022/11/16 01:46:21;;;;;;;;;0.00;0.00;;;;;10.73;79.98;99763.81;5076691;27;46563;-83
2022/11/16 01:48:49;;;;;;;;;0.00;0.00;;;;;10.70;79.31;99762.19;5076267;28;45469;-83
2022/11/16 01:51:14;;;;;;;;;0.00;0.00;;;;;10.65;79.48;99764.16;5058618;28;45476;-83
2022/11/16 01:53:40;;;;;;;;;0.25;0.00;;;;;10.60;79.49;99771.31;5076383;28;49788;-83
2022/11/16 01:56:07;;;;;;;;;0.00;0.00;;;;;10.55;79.52;99765.47;5057667;28;61413;-83
2022/11/16 01:58:32;;;;;;;;;0.00;0.00;;;;;10.52;79.62;99779.47;5076479;28;45308;-83
2022/11/16 02:00:58;;;;;;;;;1.00;0.00;;;;;10.49;79.73;99773.53;5057720;28;59444;-82
2022/11/16 02:03:24;;;;;;;;;0.25;0.00;;;;;10.46;79.86;99770.16;5074727;27;45511;-82
2022/11/16 02:05:56;;;;;;;;;0.25;0.25;;;;;10.43;79.43;99764.25;5057919;28;54201;-83
2022/11/16 02:12:00;;;;;;;;;1.75;0.00;;;;;10.39;79.59;99770.50;5075383;28;45494;-83
2022/11/16 02:14:46;;;;;;;;;1.75;0.00;;;;;10.36;79.79;99766.25;5076251;28;45351;-83
2022/11/16 02:17:30;;;;;;;;;1.00;0.00;;;;;10.35;79.90;99768.97;5075777;28;45398;-83
2022/11/16 02:20:36;;;;;;;;;0.75;0.00;;;;;10.34;80.00;99775.06;5075257;28;46157;-83
2022/11/16 02:23:20;;;;;;;;;6.50;1.00;;;;;10.30;79.61;99771.72;5075284;28;45343;-83
2022/11/16 02:25:45;;;;;;;;;1.00;0.75;;;;;10.29;79.62;99772.63;5076231;28;45483;-83
2022/11/16 02:28:25;;;;;;;;;3.00;0.67;;;;;10.27;79.86;99774.47;5074819;27;48306;-83
2022/11/16 02:30:53;;;;;;;;;1.00;0.00;;;;;10.26;79.79;99772.75;5057391;28;45713;-83
2022/11/16 02:33:21;;;;;;;;;1.75;0.00;;;;;10.24;79.95;99779.78;5057260;28;63653;-83
2022/11/16 02:35:49;;;;;;;;;1.25;0.75;;;;;10.23;79.60;99770.28;5057804;28;45497;-83
2022/11/16 02:38:20;;;;;;;;;0.75;0.75;;;;;10.20;79.89;99767.84;5057660;28;46074;-83
2022/11/16 02:40:48;;;;;;;;;2.00;0.00;;;;;10.19;80.12;99766.97;5057668;28;45386;-82
2022/11/16 02:43:25;;;;;;;;;6.25;0.25;;;;;10.19;79.81;99768.72;5057872;28;45360;-83
2022/11/16 02:45:54;;;;;;;;;1.00;0.00;;;;;10.16;79.80;99771.44;5057486;28;45448;-83
2022/11/16 02:48:23;;;;;;;;;0.75;0.75;;;;;10.14;79.67;99763.75;5057782;28;45592;-82
2022/11/16 02:50:51;;;;;;;;;0.00;0.00;;;;;10.11;79.78;99755.22;5057789;28;45739;-83
2022/11/16 02:53:19;;;;;;;;;1.00;0.00;;;;;10.11;79.76;99755.22;5076145;27;45292;-83
2022/11/16 02:55:44;;;;;;;;;0.75;0.00;;;;;10.11;79.98;99763.03;5057718;28;45467;-83
2022/11/16 02:58:11;;;;;;;;;0.75;0.00;;;;;10.12;79.87;99765.53;5056663;28;74169;-82
2022/11/16 03:01:07;;;;;;;;;1.00;0.00;;;;;10.12;79.65;99754.28;5057281;28;45596;-83
2022/11/16 03:03:41;;;;;;;;;1.00;0.50;;;;;10.11;79.41;99761.25;5075404;28;45359;-83
2022/11/16 03:06:16;;;;;;;;;6.50;0.00;;;;;10.13;78.98;99766.41;5075700;27;45339;-83
2022/11/16 03:09:10;;;;;;;;;1.00;0.00;;;;;10.16;78.97;99761.03;5057493;28;48271;-83
2022/11/16 03:14:27;;;;;;;;;1.00;1.00;;;;;10.21;78.75;99756.50;5074113;28;45278;-83
2022/11/16 03:16:55;;;;;;;;;1.00;0.00;;;;;10.22;78.79;99748.63;5074525;27;45336;-83
2022/11/16 03:19:27;;;;;;;;;0.00;0.00;;;;;10.26;79.12;99744.16;5074179;28;46202;-83
2022/11/16 03:22:11;;;;;;;;;0.00;0.00;;;;;10.27;78.99;99736.28;5074344;28;45388;-82
2022/11/16 03:24:36;;;;;;;;;0.75;0.00;;;;;10.27;78.77;99741.50;5060097;28;45352;-83
2022/11/16 03:27:20;;;;;;;;;0.00;0.00;;;;;10.28;78.73;99737.13;5078929;27;45366;-83
2022/11/16 03:30:04;;;;;;;;;0.00;0.00;;;;;10.25;78.62;99727.72;5078472;27;46183;-83
2022/11/16 03:32:45;;;;;;;;;0.00;0.00;;;;;10.23;78.33;99729.53;5060862;27;45443;-83
2022/11/16 03:35:21;;;;;;;;;0.00;0.00;;;;;10.23;78.43;99723.47;5061198;27;45316;-83
2022/11/16 03:37:48;;;;;;;;;0.00;0.00;;;;;10.21;78.45;99723.53;5060462;28;45278;-83
2022/11/16 03:40:17;;;;;;;;;0.00;0.00;;;;;10.19;78.83;99722.75;5077114;28;45565;-82
2022/11/16 03:42:44;;;;;;;;;2.00;0.00;;;;;10.20;78.30;99718.41;5060701;28;45766;-82
2022/11/16 03:45:11;;;;;;;;;2.00;0.00;;;;;10.20;78.14;99723.63;5060210;27;45465;-83
2022/11/16 03:47:36;;;;;;;;;0.75;0.75;;;;;10.22;78.43;99721.78;5060588;28;45363;-82
2022/11/16 03:50:02;;;;;;;;;1.75;0.25;;;;;10.26;78.55;99718.13;5077698;27;63479;-82
2022/11/16 03:52:28;;;;;;;;;0.00;0.00;;;;;10.23;78.28;99716.53;5060337;27;45476;-82
2022/11/16 03:54:53;;;;;;;;;0.00;0.00;;;;;10.20;78.46;99703.66;5059843;28;63804;-83
2022/11/16 03:57:18;;;;;;;;;0.00;0.00;;;;;10.16;78.61;99704.69;5060500;28;45630;-83
2022/11/16 03:59:44;;;;;;;;;0.50;0.00;;;;;10.14;78.40;99708.25;5078108;27;45479;-82
2022/11/16 04:02:10;;;;;;;;;0.00;0.00;;;;;10.13;78.72;99709.19;5060100;28;45632;-82
2022/11/16 04:29:13;;;;;;;;;0.00;0.00;;;;;9.87;79.02;99692.94;5062721;28;45436;-82
2022/11/16 04:39:51;;;;;;;;;0.25;0.00;;;;;9.74;79.83;99687.44;5062333;28;45352;-83
2022/11/16 04:42:18;;;;;;;;;1.00;0.00;;;;;9.75;79.81;99690.88;5076476;27;73851;-82
2022/11/16 04:47:28;;;;;;;;;1.75;0.00;;;;;9.74;80.12;99695.22;5077812;27;45351;-82
2022/11/16 04:49:53;;;;;;;;;1.00;0.00;;;;;9.77;80.33;99687.31;5059012;27;54297;-82
2022/11/16 04:52:19;;;;;;;;;2.00;0.00;;;;;9.81;80.42;99690.63;5077588;27;46164;-82
2022/11/16 04:54:44;;;;;;;;;1.00;1.00;;;;;9.86;80.48;99679.13;5058311;28;74833;-83
2022/11/16 04:57:09;;;;;;;;;0.00;0.00;;;;;9.92;80.29;99675.41;5058534;27;61157;-82
2022/11/16 04:59:35;;;;;;;;;0.00;0.00;;;;;9.98;80.58;99684.69;5058675;28;63879;-82
2022/11/16 05:02:09;;;;;;;;;0.00;0.00;;;;;10.01;80.47;99680.22;5076547;27;67754;-83
2022/11/16 05:04:35;;;;;;;;;2.00;0.00;;;;;10.04;80.59;99684.44;5060571;28;45518;-83
2022/11/16 05:07:01;;;;;;;;;1.00;0.00;;;;;10.07;80.46;99682.53;5077233;27;45336;-82
2022/11/16 05:09:26;;;;;;;;;1.00;0.00;;;;;10.11;80.68;99680.66;5058603;28;64155;-83
2022/11/16 05:11:52;;;;;;;;;0.50;0.50;;;;;10.14;80.38;99677.94;5075783;28;75476;-82
2022/11/16 05:14:17;;;;;;;;;1.00;0.00;;;;;10.18;80.61;99684.66;5077079;27;45345;-83
2022/11/16 05:16:43;;;;;;;;;2.75;0.00;;;;;10.20;80.22;99680.25;5058394;28;63350;-83
2022/11/16 05:21:52;;;;;;;;;1.50;0.00;;;;;10.22;80.05;99680.19;5061669;28;45754;-83
2022/11/16 05:24:32;;;;;;;;;0.00;0.00;;;;;10.20;80.44;99675.03;5076676;27;56025;-83
2022/11/16 05:27:01;;;;;;;;;0.50;0.00;;;;;10.19;79.90;99677.69;5077032;27;45384;-82
2022/11/16 05:29:27;;;;;;;;;2.25;1.00;;;;;10.19;80.14;99680.31;5077159;28;45352;-83
2022/11/16 05:31:52;;;;;;;;;1.00;0.00;;;;;10.14;79.97;99675.31;5058073;28;67735;-83
2022/11/16 05:34:17;;;;;;;;;1.75;0.00;;;;;10.13;80.06;99667.59;5058364;28;49848;-82
2022/11/16 05:36:42;;;;;;;;;2.00;0.00;;;;;10.13;79.96;99659.78;5076949;27;45289;-83
2022/11/16 05:39:08;;;;;;;;;0.75;0.00;;;;;10.13;80.08;99664.97;5075552;27;61211;-83
2022/11/16 05:41:33;;;;;;;;;2.50;0.00;;;;;10.12;80.27;99669.31;5057585;27;66883;-82
2022/11/16 05:43:59;;;;;;;;;3.00;1.00;;;;;10.11;80.09;99654.66;5076025;28;67076;-83
2022/11/16 05:46:24;;;;;;;;;1.00;1.00;;;;;10.10;80.48;99659.91;5057643;27;60144;-82
2022/11/16 05:48:50;;;;;;;;;0.00;0.00;;;;;10.11;79.98;99654.66;5057984;28;56182;-83
2022/11/16 05:51:15;;;;;;;;;0.00;0.00;;;;;10.12;80.16;99660.69;5076618;28;46398;-83
2022/11/16 05:53:42;;;;;;;;;0.00;0.00;;;;;10.10;80.30;99665.09;5057267;28;66211;-83
2022/11/16 05:56:08;;;;;;;;;0.25;0.25;;;;;10.08;80.21;99655.63;5076745;28;45410;-83
2022/11/16 05:58:34;;;;;;;;;0.25;0.00;;;;;10.10;80.52;99662.50;5076591;27;45593;-82
2022/11/16 06:00:59;;;;;;;;;1.00;0.00;;;;;10.11;80.44;99665.03;5040707;27;68727;-83
2022/11/16 06:03:27;;;;;;;;;1.25;1.00;;;;;10.10;80.21;99665.09;5058320;28;45439;-83
2022/11/16 06:05:54;;;;;;;;;0.50;0.00;;;;;10.08;80.43;99662.56;5058502;27;45319;-83
2022/11/16 06:08:20;;;;;;;;;1.00;0.00;;;;;10.07;80.51;99669.53;5076123;27;45234;-82
2022/11/16 06:10:45;;;;;;;;;1.00;0.00;;;;;10.09;81.00;99672.06;5041378;28;48186;-82
2022/11/16 06:13:10;;;;;;;;;0.00;0.00;;;;;10.08;80.74;99663.44;5076085;27;53500;-82
2022/11/16 06:15:37;;;;;;;;;0.00;0.00;;;;;10.09;80.65;99661.69;5076343;27;45205;-82
2022/11/16 06:18:02;;;;;;;;;0.00;0.00;;;;;10.11;80.91;99666.81;5076239;28;45470;-83
2022/11/16 06:20:28;;;;;;;;;1.75;1.00;;;;;10.13;80.87;99659.78;5076307;28;45332;-83
2022/11/16 06:22:53;;;;;;;;;2.25;0.25;;;;;10.13;80.77;99658.03;5075103;28;68091;-82
2022/11/16 06:25:18;;;;;;;;;0.50;0.50;;;;;10.13;80.73;99650.22;5075322;28;66434;-83
2022/11/16 06:27:43;;;;;;;;;2.25;1.00;;;;;10.14;80.40;99657.13;5075336;28;65592;-83
2022/11/16 06:30:09;;;;;;;;;0.75;0.00;;;;;10.14;80.94;99649.31;5075419;28;67394;-82
2022/11/16 06:32:34;;;;;;;;;1.00;1.00;;;;;10.15;81.05;99645.78;5076040;27;45376;-83
2022/11/16 06:35:00;;;;;;;;;0.75;0.00;;;;;10.14;80.93;99661.44;5041154;28;45402;-83
2022/11/16 06:37:25;;;;;;;;;1.00;0.00;;;;;10.13;81.15;99662.38;5057561;28;45341;-83
2022/11/16 06:39:50;;;;;;;;;2.00;0.25;;;;;10.13;80.91;99660.63;5074796;28;73148;-82
2022/11/16 06:42:16;;;;;;;;;0.25;0.00;;;;;10.15;80.97;99657.97;5057304;28;60019;-83
2022/11/16 06:44:41;;;;;;;;;0.25;0.00;;;;;10.16;80.59;99664.81;5075341;28;63102;-82
2022/11/16 06:47:06;;;;;;;;;2.00;0.00;;;;;10.18;80.95;99652.63;5075094;28;66221;-83
2022/11/16 06:49:32;;;;;;;;;0.25;0.25;;;;;10.21;80.51;99660.28;5074924;27;65158;-82
2022/11/16 06:51:57;;;;;;;;;0.00;0.00;;;;;10.21;81.02;99663.72;5057264;28;45360;-83
2022/11/16 06:54:22;;;;;;;;;0.75;0.75;;;;;10.20;80.62;99656.84;5075029;28;64245;-83
2022/11/16 06:56:48;;;;;;;;;0.50;0.00;;;;;10.23;80.59;99667.13;5075585;28;49428;-83
2022/11/16 06:59:13;;;;;;;;;0.50;0.50;;;;;10.26;80.45;99671.31;5076947;27;69778;-83
2022/11/16 07:01:38;;;;;;;;;2.00;0.00;;;;;10.29;80.33;99666.00;5079029;27;54411;-83
2022/11/16 07:04:04;;;;;;;;;0.00;0.00;;;;;10.31;80.52;99669.41;5079470;27;45162;-86
2022/11/16 07:06:29;;;;;;;;;0.50;0.50;;;;;10.34;80.35;99668.41;5078511;27;52647;-85
2022/11/16 07:08:54;;;;;;;;;0.00;0.00;;;;;10.36;80.29;99661.38;5060966;28;47399;-85
2022/11/16 07:11:20;;;;;;;;;0.00;0.00;;;;;10.39;80.26;99662.09;5079076;28;45294;-84
2022/11/16 07:13:48;;;;;;;;;1.50;0.25;;;;;10.40;80.53;99660.31;5044429;28;45458;-85
2022/11/16 07:16:13;;;;;;;;;2.00;1.00;;;;;10.42;80.45;99663.72;5061339;28;45369;-85
2022/11/16 07:18:40;;;;;;;;;2.00;0.50;;;;;10.44;80.31;99665.31;5078949;27;46187;-84
2022/11/16 07:21:13;;;;;;;;;0.00;0.00;;;;;10.44;80.46;99675.72;5060400;28;45441;-83
2022/11/16 07:23:38;;;;;;;;;1.00;1.00;;;;;10.45;80.34;99680.00;5079022;27;45477;-83
2022/11/16 07:26:05;;;;;;;;;1.50;0.75;;;;;10.46;80.24;99678.28;5079129;27;45405;-83
2022/11/16 07:28:31;;;;;;;;;2.50;1.00;;;;;10.50;80.43;99671.16;5060518;28;47167;-83
2022/11/16 07:31:01;;;;;;;;;1.00;0.00;;;;;10.53;80.47;99673.63;5060503;28;45442;-82
2022/11/16 07:33:26;;;;;;;;;0.25;0.25;;;;;10.56;80.18;99676.09;5060939;28;45448;-83
2022/11/16 07:35:52;;;;;;;;;2.25;0.00;;;;;10.57;80.35;99669.97;5059454;28;64971;-83
2022/11/16 07:38:17;;;;;;;;;2.50;0.00;;;;;10.59;80.36;99668.97;5059589;27;66457;-85
2022/11/16 07:40:44;;;;;;;;;2.00;1.00;;;;;10.59;80.18;99663.78;5060263;28;45877;-83
2022/11/16 07:43:12;;;;;;;;;0.75;0.75;;;;;10.62;80.38;99668.84;5078740;27;45427;-83
2022/11/16 07:45:38;;;;;;;;;3.50;1.50;;;;;10.66;80.46;99659.16;5060906;28;45577;-84
2022/11/16 07:48:03;;;;;;;;;1.00;1.00;;;;;10.70;80.41;99654.63;5078383;28;45293;-82
2022/11/16 07:50:29;;;;;;;;;2.00;1.00;;;;;10.75;80.21;99669.09;5074965;28;45470;-82
2022/11/16 07:52:55;;;;;;;;;1.00;1.00;;;;;10.81;80.46;99663.63;5076449;27;45526;-82
2022/11/16 07:55:23;;;;;;;;;1.00;1.00;;;;;10.88;80.20;99673.75;5076156;28;45385;-83
2022/11/16 07:57:48;;;;;;;;;5.75;1.00;;;;;10.93;80.37;99679.59;5059639;28;45435;-83
2022/11/16 08:00:13;;;;;;;;;1.25;1.25;;;;;10.98;80.27;99686.25;5076240;28;73307;-84
2022/11/16 08:02:39;;;;;;;;;4.50;0.75;;;;;11.03;80.33;99683.41;5078310;28;45304;-83
2022/11/16 08:05:05;;;;;;;;;2.25;1.00;;;;;11.08;79.90;99672.81;5059094;28;48063;-83
2022/11/16 08:07:32;;;;;;;;;2.75;1.00;;;;;11.12;80.17;99669.13;5070800;28;45449;-83
2022/11/16 08:09:58;;;;;;;;;2.25;1.00;;;;;11.17;80.09;99667.16;5059404;28;45849;-83
2022/11/16 08:12:23;;;;;;;;;2.75;1.00;;;;;11.20;79.74;99686.09;5077533;28;45451;-84
2022/11/16 08:14:48;;;;;;;;;1.00;1.00;;;;;11.22;79.83;99686.00;5077384;27;46583;-83
2022/11/16 08:17:14;;;;;;;;;1.00;1.00;;;;;11.27;80.09;99678.78;5076234;28;63705;-85
2022/11/16 08:19:41;;;;;;;;;1.00;1.00;;;;;11.32;79.64;99675.97;5059206;27;45432;-85
2022/11/16 08:22:06;;;;;;;;;1.50;1.00;;;;;11.38;79.66;99675.66;5077307;28;45526;-85
2022/11/16 08:24:32;;;;;;;;;1.00;0.00;;;;;11.39;79.46;99674.75;5078135;27;45424;-84
2022/11/16 08:26:57;;;;;;;;;1.00;1.00;;;;;11.40;79.47;99679.03;5059432;27;45495;-83
2022/11/16 08:29:24;;;;;;;;;1.00;1.00;;;;;11.44;79.94;99675.38;5077823;28;45347;-82
2022/11/16 08:31:49;;;;;;;;;1.75;1.75;;;;;11.45;79.95;99684.88;5076525;27;45573;-84
2022/11/16 08:34:15;;;;;;;;;0.00;0.00;;;;;11.48;79.62;99678.66;5059216;28;45380;-84
2022/11/16 08:36:41;;;;;;;;;3.50;1.00;;;;;11.47;79.85;99682.19;5059513;28;46534;-84
2022/11/16 08:39:06;;;;;;;;;1.00;1.00;;;;;11.49;79.73;99686.41;5038187;28;72673;-84
2022/11/16 08:41:34;;;;;;;;;5.75;0.75;;;;;11.47;79.18;99690.03;5057337;28;45385;-84
2022/11/16 08:44:00;;;;;;;;;0.50;0.25;;;;;11.47;79.68;99684.81;5056402;28;45415;-84
2022/11/16 08:46:25;;;;;;;;;0.50;0.50;;;;;11.50;79.54;99689.88;5056038;28;47199;-85
2022/11/16 08:48:54;;;;;;;;;1.50;1.00;;;;;11.53;79.36;99687.09;5055820;28;45379;-84
2022/11/16 08:51:19;;;;;;;;;3.25;1.50;;;;;11.59;79.56;99686.81;5057357;28;45391;-85
2022/11/16 08:53:46;;;;;;;;;1.75;1.00;;;;;11.62;79.04;99677.06;5056606;28;62561;-85
2022/11/16 08:56:13;;;;;;;;;0.00;0.00;;;;;11.63;79.50;99665.72;5057070;28;46336;-85
2022/11/16 08:58:42;;;;;;;;;7.00;1.00;;;;;11.65;79.63;99670.03;5057007;28;45288;-84
2022/11/16 09:01:13;;;;;;;;;1.00;1.00;;;;;11.62;79.54;99671.84;5057230;28;45296;-84
2022/11/16 09:03:39;;;;;;;;;1.75;1.00;;;;;11.62;80.00;99661.41;5055451;28;45423;-84
2022/11/16 09:06:05;;;;;;;;;2.75;2.75;;;;;11.63;79.92;99664.88;5056794;28;45912;-84
2022/11/16 09:08:31;;;;;;;;;2.00;1.00;;;;;11.65;80.88;99660.44;5055692;28;45544;-85
2022/11/16 09:10:57;;;;;;;;;1.50;0.50;;;;;11.70;81.03;99668.88;5057082;28;45648;-85
2022/11/16 09:13:22;;;;;;;;;4.75;2.00;;;;;11.78;81.86;99671.91;5057305;28;45200;-86
2022/11/16 09:15:54;;;;;;;;;5.25;0.75;;;;;11.92;81.60;99659.97;5056435;28;55575;-85
2022/11/16 09:18:20;;;;;;;;;3.00;0.25;;;;;12.12;81.89;99651.94;5072255;27;45468;-85
2022/11/16 09:20:45;;;;;;;;;3.00;0.50;;;;;12.34;80.67;99653.44;5056353;28;58227;-86
2022/11/16 09:23:10;;;;;;;;;1.25;1.00;;;;;12.44;80.81;99658.97;5055875;28;45674;-85
2022/11/16 09:25:36;;;;;;;;;2.00;0.00;;;;;12.53;80.13;99654.09;5072839;27;45481;-85
2022/11/16 09:28:01;;;;;;;;;2.75;1.25;;;;;12.64;80.44;99658.75;5055815;28;45359;-86
2022/11/16 09:30:26;;;;;;;;;0.00;0.00;;;;;12.77;79.53;99649.31;5057176;28;45323;-86
2022/11/16 09:32:52;;;;;;;;;2.50;1.00;;;;;12.87;78.65;99651.41;5056707;28;61896;-85
2022/11/16 09:35:19;;;;;;;;;1.50;0.25;;;;;12.92;78.97;99655.44;5055181;28;46314;-85
2022/11/16 09:37:44;;;;;;;;;3.25;1.00;;;;;12.93;78.32;99648.47;5058683;28;45856;-85
2022/11/16 09:40:11;;;;;;;;;1.00;1.00;;;;;12.91;78.38;99647.72;5076949;28;45372;-84
2022/11/16 09:42:48;;;;;;;;;0.50;0.00;;;;;12.86;77.84;99644.50;5076893;27;45434;-85
2022/11/16 09:45:55;;;;;;;;;1.75;0.00;;;;;12.84;78.01;99635.94;5076724;28;46375;-84
2022/11/16 09:48:20;;;;;;;;;2.00;1.00;;;;;12.86;78.52;99634.91;4994169;28;45785;-85
2022/11/16 09:50:50;;;;;;;;;0.75;0.25;;;;;12.83;78.24;99632.44;4993428;28;69212;-85
2022/11/16 09:53:21;;;;;;;;;1.25;0.00;;;;;12.77;77.64;99632.81;4977936;28;45532;-84
2022/11/16 09:55:55;;;;;;;;;4.50;1.00;;;;;12.74;78.01;99632.97;4994062;28;45513;-85
2022/11/16 09:58:29;;;;;;;;;2.75;1.25;;;;;12.76;77.87;99634.59;4961440;28;45973;-85
2022/11/16 10:01:04;;;;;;;;;0.00;0.00;;;;;12.83;78.03;99639.47;4977594;28;45415;-84
2022/11/16 10:03:30;;;;;;;;;2.00;1.00;;;;;12.93;77.87;99635.41;4977888;28;45386;-85
2022/11/16 10:06:03;;;;;;;;;6.00;1.00;;;;;13.13;77.34;99642.09;4993822;28;46858;-85
2022/11/16 10:08:49;;;;;;;;;1.00;0.00;;;;;13.33;77.21;99634.03;4994086;28;45753;-84
2022/11/16 10:11:32;;;;;;;;;1.25;1.00;;;;;13.45;76.60;99631.63;4994162;28;45364;-84
2022/11/16 10:14:03;;;;;;;;;2.00;1.00;;;;;13.55;75.51;99638.81;4994059;28;45536;-84
2022/11/16 10:16:40;;;;;;;;;0.25;0.00;;;;;13.64;75.31;99649.69;4993486;28;45769;-84
2022/11/16 10:19:16;;;;;;;;;0.00;0.00;;;;;13.75;74.93;99637.63;4960951;28;46005;-84
2022/11/16 10:21:56;;;;;;;;;0.00;0.00;;;;;13.91;74.82;99647.16;4993900;28;45313;-84
2022/11/16 10:24:24;;;;;;;;;0.00;0.00;;;;;13.98;73.77;99650.28;5008806;28;45327;-84
2022/11/16 10:27:02;;;;;;;;;1.00;0.00;;;;;14.05;73.50;99656.81;5076067;28;45415;-84
2022/11/16 10:29:55;;;;;;;;;0.50;0.00;;;;;14.28;72.48;99643.19;5057554;28;45382;-84
2022/11/16 10:32:27;;;;;;;;;0.75;0.00;;;;;14.49;71.91;99650.63;5058114;27;45454;-84
2022/11/16 10:34:55;;;;;;;;;0.00;0.00;;;;;14.47;70.56;99658.59;5061648;28;45489;-84
2022/11/16 10:37:21;;;;;;;;;2.00;1.00;;;;;14.40;70.67;99640.72;5079465;28;46528;-84
2022/11/16 10:39:49;;;;;;;;;2.50;0.00;;;;;14.35;70.48;99654.09;5079371;27;45525;-84
2022/11/16 10:42:28;;;;;;;;;0.50;0.00;;;;;14.25;70.16;99647.75;5079781;27;45237;-84
2022/11/16 10:45:05;;;;;;;;;0.75;0.00;;;;;14.14;71.04;99648.41;5061069;27;45313;-84
2022/11/16 10:47:41;;;;;;;;;3.00;1.25;;;;;14.09;71.08;99632.16;5061317;28;47559;-85
2022/11/16 10:50:15;;;;;;;;;1.50;0.50;;;;;14.10;71.09;99631.22;5061725;28;45812;-85
2022/11/16 10:52:41;;;;;;;;;3.00;0.00;;;;;14.17;71.17;99627.31;5079523;28;45407;-85
2022/11/16 10:55:07;;;;;;;;;0.75;0.00;;;;;14.17;70.88;99632.53;5078817;28;56842;-85
2022/11/16 10:57:53;;;;;;;;;0.50;0.00;;;;;14.16;71.05;99623.00;5060802;28;46354;-85
2022/11/16 11:00:33;;;;;;;;;0.00;0.00;;;;;14.20;70.65;99618.41;5060418;28;45818;-85
2022/11/16 11:02:58;;;;;;;;;0.00;0.00;;;;;14.46;70.93;99599.28;5061305;28;45437;-85
2022/11/16 11:05:25;;;;;;;;;0.75;0.75;;;;;14.68;69.14;99609.28;5061286;28;45373;-85
2022/11/16 11:08:00;;;;;;;;;1.50;0.00;;;;;14.75;69.37;99595.81;5061090;27;45534;-85
2022/11/16 11:10:30;;;;;;;;;0.75;0.75;;;;;15.06;68.76;99581.50;5079157;27;45359;-84
2022/11/16 11:13:10;;;;;;;;;1.25;0.00;;;;;15.17;68.40;99588.69;5078993;27;45298;-84
2022/11/16 11:15:37;;;;;;;;;1.00;1.00;;;;;15.19;67.44;99584.16;5079134;28;45363;-84
2022/11/16 11:18:23;;;;;;;;;0.50;0.50;;;;;15.28;67.98;99584.41;5044048;28;47418;-85
2022/11/16 11:20:51;;;;;;;;;0.50;0.50;;;;;15.42;67.01;99582.66;5060954;28;45438;-85
2022/11/16 11:23:21;;;;;;;;;4.00;0.00;;;;;15.33;66.05;99573.59;5079225;27;45241;-85
2022/11/16 11:25:53;;;;;;;;;0.00;0.00;;;;;15.14;64.94;99586.28;5079129;27;45585;-85
2022/11/16 11:28:22;;;;;;;;;2.00;1.00;;;;;15.02;65.90;99567.78;5060369;28;45509;-84
2022/11/16 11:31:04;;;;;;;;;3.00;0.00;;;;;15.00;65.94;99558.34;5078920;27;45389;-85
2022/11/16 11:33:34;;;;;;;;;1.00;0.25;;;;;15.03;65.80;99561.59;5061044;28;45404;-85
2022/11/16 11:36:02;;;;;;;;;3.00;0.00;;;;;15.66;67.37;99561.78;5060879;28;45493;-85
2022/11/16 11:38:28;;;;;;;;;3.25;1.75;;;;;16.92;63.90;99555.47;5078387;27;46658;-84
2022/11/16 11:41:01;;;;;;;;;0.00;0.00;;;;;17.38;63.31;99557.28;5077307;27;45418;-85
2022/11/16 11:43:29;;;;;;;;;1.00;1.00;;;;;17.31;60.86;99557.84;5060443;28;45264;-85
2022/11/16 11:46:20;;;;;;;;;1.50;0.25;;;;;17.02;60.96;99553.00;5078194;28;45517;-85
2022/11/16 11:48:55;;;;;;;;;2.50;2.00;;;;;16.87;61.48;99554.16;5060461;28;46606;-85
2022/11/16 11:51:26;;;;;;;;;1.00;1.00;;;;;16.87;60.72;99554.16;5060554;28;45640;-85
2022/11/16 11:53:59;;;;;;;;;1.00;1.00;;;;;16.82;60.98;99560.56;5060355;27;45382;-84
2022/11/16 11:56:25;;;;;;;;;5.00;1.00;;;;;16.64;60.02;99554.00;5059908;28;45367;-85
2022/11/16 11:58:51;;;;;;;;;1.50;0.50;;;;;16.34;60.32;99557.06;5060207;28;46405;-84
2022/11/16 12:01:41;;;;;;;;;1.00;1.00;;;;;15.99;61.08;99544.66;5060122;27;45347;-84
2022/11/16 12:04:06;;;;;;;;;7.25;0.50;;;;;15.84;61.65;99544.78;5078480;27;45387;-85
2022/11/16 12:06:52;;;;;;;;;4.33;1.00;;;;;15.83;62.65;99552.75;5078184;27;45545;-85
2022/11/16 12:09:34;;;;;;;;;2.00;1.00;;;;;15.87;62.16;99557.69;5078063;28;46432;-85
2022/11/16 12:12:25;;;;;;;;;3.50;0.00;;;;;15.69;61.45;99543.19;5059729;27;45562;-85
2022/11/16 12:14:53;;;;;;;;;1.00;0.00;;;;;15.67;62.14;99545.94;5060052;28;45340;-85
2022/11/16 12:17:34;;;;;;;;;2.50;1.00;;;;;15.75;62.61;99541.94;5078299;27;45301;-85
2022/11/16 12:20:24;;;;;;;;;1.00;1.00;;;;;15.69;61.98;99530.06;5059809;28;48191;-84
2022/11/16 12:22:49;;;;;;;;;2.50;1.00;;;;;15.68;62.53;99525.78;5078064;28;45238;-84
2022/11/16 12:25:55;;;;;;;;;3.00;1.00;;;;;15.72;62.55;99532.50;5077855;28;45336;-85
2022/11/16 12:28:34;;;;;;;;;1.25;0.00;;;;;15.81;62.14;99531.03;5076773;28;45391;-85